Wall, SD (57790)

9:22 PM MDT on August 29, 2016 (GMT -0600)
NonFedAWOS | | Change Station

Elev 2812 ft 44.00 °N, 102.25 °W | Updated 47 minutes ago

Clear
Clear
72 °F
Feels Like 74 °F
N
0
Wind Variable Wind from North
Gusts 0.0 mph

Today
High -- | Low -- °F
--% Chance of Precip.
Yesterday
High -- | Low -- °F
Precip. -- in
Pressure 30.13 in
Visibility 10.0 miles
Clouds Clear
Heat Index 74 °F
Dew Point 63 °F
Humidity 73%
Rainfall in
Snow Depth Not available.
6:09 AM 7:29 PM
Waning Crescent, 5% visible
METAR KPHP 300255Z AUTO 06010KT 10SM CLR 24/19 A3018 RMK AO2 SLP203 T02390194 53014
Pressure 30.13 in
Visibility 10.0 miles
Clouds Clear
Heat Index 74 °F
Dew Point 63 °F
Humidity 73%
Rainfall in
Snow Depth Not available.
6:09 AM 7:29 PM
Waning Crescent, 5% visible
METAR KPHP 300255Z AUTO 06010KT 10SM CLR 24/19 A3018 RMK AO2 SLP203 T02390194 53014

10-Day Weather Forecast

Almanac

Astronomy

Aug. 29, 2016 Rise Set
Actual Time
Civil Twilight
Nautical Twilight
Astronomical Twilight
Moon
Length of Visible Light
Length of Day
Tomorrow will be .
, % of the Moon is Illuminated

Today's Extremes

State Highs State Lows

Community

WunderPhotos

Upload Photos

1,935,777 photos uploaded!

WunderBlog® & News

Nearby

Air Quality

  Air Quality AQ Index Pollutant
Not available.

Snow Depth

Station Depth Elevation

Earthquake Activity

City Distance Mag. Time & Date
Minimum magnitude displayed is 2.5.

Coastal Water Temperatures

Place Temperature

Stations

Nearby Weather Stations

Station Location Temp. Windchill Dew Point Humidity Wind Precip. Elev Updated Type
                   

Watches & Warnings

There are currently no watches in effect.